Terminal Aerodrome Forecast
Issued by NWS

Home | Current Version | Previous Version | Text Only | Print | Product List | Glossary On
Versions: 1 2 3 4 5 6 7 8 9 10 11 12 13 14 15 16 17 18 19 20 21
000
FTUS46 KMFR 272020 AAA
TAFRBG
TAF AMD
KRBG 272020Z 2720/2818 15006KT 5SM -RA BR SCT040 OVC060
     FM272200 18004KT P6SM -RA SCT020 OVC040
     FM280700 17003KT 5SM -RA BR BKN020 OVC040=

USA.gov is the U.S. government's official web portal to all federal, state and local government web resources and services.